createdAt,value
2018-12-26T00:00:32.501Z,1027.44
2018-12-26T00:01:32.500Z,1027.42
2018-12-26T00:02:32.449Z,1027.39
2018-12-26T00:03:32.425Z,1027.37
2018-12-26T00:04:32.406Z,1027.36
2018-12-26T00:05:32.388Z,1027.34
2018-12-26T00:06:32.348Z,1027.31
2018-12-26T00:07:32.327Z,1027.32
2018-12-26T00:08:32.307Z,1027.28
2018-12-26T00:09:32.275Z,1027.27
2018-12-26T00:10:32.253Z,1027.26
2018-12-26T00:11:32.230Z,1027.22
2018-12-26T00:12:32.202Z,1027.22
2018-12-26T00:13:32.170Z,1027.22
2018-12-26T00:14:32.151Z,1027.21
2018-12-26T00:15:32.119Z,1027.20
2018-12-26T00:16:32.095Z,1027.17
2018-12-26T00:17:32.068Z,1027.20
2018-12-26T00:18:32.062Z,1027.17
2018-12-26T00:19:32.059Z,1027.15
2018-12-26T00:20:31.990Z,1027.20
2018-12-26T00:21:31.966Z,1027.20
2018-12-26T00:22:31.988Z,1027.24
2018-12-26T00:23:31.912Z,1027.24
2018-12-26T00:24:31.887Z,1027.23
2018-12-26T00:25:31.861Z,1027.18
2018-12-26T00:26:31.849Z,1027.11
2018-12-26T00:27:31.810Z,1027.15
2018-12-26T00:28:31.783Z,1027.17
2018-12-26T00:29:31.764Z,1027.16
2018-12-26T00:30:31.737Z,1027.16
2018-12-26T00:31:31.710Z,1027.19
2018-12-26T00:32:31.684Z,1027.16
2018-12-26T00:33:31.668Z,1027.13
2018-12-26T00:34:31.631Z,1027.16
2018-12-26T00:35:31.603Z,1027.17
2018-12-26T00:36:31.575Z,1027.18
2018-12-26T00:37:31.552Z,1027.15
2018-12-26T00:38:31.525Z,1027.18
2018-12-26T00:39:31.501Z,1027.19
2018-12-26T00:40:31.484Z,1027.16
2018-12-26T00:41:31.447Z,1027.17
2018-12-26T00:42:31.423Z,1027.16
2018-12-26T00:43:31.395Z,1027.17
2018-12-26T00:44:31.370Z,1027.16
2018-12-26T00:45:31.343Z,1027.20
2018-12-26T00:46:31.319Z,1027.19
2018-12-26T00:47:31.296Z,1027.19
2018-12-26T00:48:31.265Z,1027.19
2018-12-26T00:49:31.248Z,1027.20
2018-12-26T00:50:31.220Z,1027.20
2018-12-26T00:51:31.207Z,1027.17
2018-12-26T00:52:31.168Z,1027.15
2018-12-26T00:53:31.137Z,1027.14
2018-12-26T00:54:31.120Z,1027.14
2018-12-26T00:55:31.094Z,1027.12
2018-12-26T00:56:31.074Z,1027.17
2018-12-26T00:57:31.034Z,1027.14
2018-12-26T00:58:31.008Z,1027.14
2018-12-26T00:59:30.983Z,1027.09
2018-12-26T01:00:30.963Z,1027.09
2018-12-26T01:01:30.934Z,1027.10
2018-12-26T01:02:30.922Z,1027.06
2018-12-26T01:03:30.877Z,1027.03
2018-12-26T01:04:30.856Z,1027.01
2018-12-26T01:05:30.843Z,1027.00
2018-12-26T01:06:30.800Z,1027.04
2018-12-26T01:07:30.776Z,1027.02
2018-12-26T01:08:30.750Z,1027.06
2018-12-26T01:09:30.724Z,1027.04
2018-12-26T01:10:30.697Z,1027.08
2018-12-26T01:11:30.677Z,1027.12
2018-12-26T01:12:30.647Z,1027.08
2018-12-26T01:13:30.625Z,1027.07
2018-12-26T01:14:30.595Z,1027.08
2018-12-26T01:15:30.570Z,1027.07
2018-12-26T01:16:30.542Z,1027.09
2018-12-26T01:17:30.522Z,1027.07
2018-12-26T01:18:30.490Z,1027.08
2018-12-26T01:19:30.466Z,1027.09
2018-12-26T01:20:30.440Z,1027.08
2018-12-26T01:21:30.426Z,1027.06
2018-12-26T01:22:30.395Z,1027.11
2018-12-26T01:23:30.363Z,1027.09
2018-12-26T01:24:30.340Z,1027.07
2018-12-26T01:25:30.317Z,1027.08
2018-12-26T01:26:30.287Z,1027.06
2018-12-26T01:27:30.260Z,1027.05
2018-12-26T01:28:30.234Z,1027.10
2018-12-26T01:29:30.209Z,1027.06
2018-12-26T01:30:30.182Z,1027.01
2018-12-26T01:31:30.155Z,1027.06
2018-12-26T01:32:30.130Z,1027.05
2018-12-26T01:33:30.123Z,1027.09
2018-12-26T01:34:30.079Z,1027.00
2018-12-26T01:35:30.051Z,1027.02
2018-12-26T01:36:30.029Z,1027.02
2018-12-26T01:37:30.003Z,1027.04
2018-12-26T01:38:29.977Z,1027.02
2018-12-26T01:39:29.961Z,1027.07
2018-12-26T01:40:29.926Z,1027.05
2018-12-26T01:41:29.900Z,1027.03
2018-12-26T01:42:29.871Z,1026.98
2018-12-26T01:43:29.846Z,1026.96
2018-12-26T01:44:29.821Z,1026.97
2018-12-26T01:45:29.796Z,1026.99
2018-12-26T01:46:29.777Z,1027.04
2018-12-26T01:47:29.747Z,1026.99
2018-12-26T01:48:29.721Z,1026.96
2018-12-26T01:49:29.790Z,1026.97
2018-12-26T01:50:29.666Z,1026.95
2018-12-26T01:51:29.641Z,1026.91
2018-12-26T01:52:29.616Z,1026.93
2018-12-26T01:53:29.599Z,1026.90
2018-12-26T01:54:29.568Z,1026.88
2018-12-26T01:55:29.534Z,1026.82
2018-12-26T01:56:29.510Z,1026.81
2018-12-26T01:57:29.483Z,1026.80
2018-12-26T01:58:29.456Z,1026.81
2018-12-26T01:59:29.432Z,1026.79
2018-12-26T02:00:29.407Z,1026.84
2018-12-26T02:01:29.388Z,1026.84
2018-12-26T02:02:29.362Z,1026.81
2018-12-26T02:03:29.330Z,1026.79
2018-12-26T02:04:29.304Z,1026.77
2018-12-26T02:05:29.277Z,1026.82
2018-12-26T02:06:29.253Z,1026.79
2018-12-26T02:07:29.225Z,1026.78
2018-12-26T02:08:29.200Z,1026.76
2018-12-26T02:09:29.174Z,1026.74
2018-12-26T02:10:29.153Z,1026.76
2018-12-26T02:11:29.123Z,1026.72
2018-12-26T02:12:29.105Z,1026.73
2018-12-26T02:13:29.071Z,1026.69
2018-12-26T02:14:29.044Z,1026.67
2018-12-26T02:15:29.017Z,1026.63
2018-12-26T02:16:28.991Z,1026.67
2018-12-26T02:17:28.967Z,1026.63
2018-12-26T02:18:28.940Z,1026.56
2018-12-26T02:19:28.914Z,1026.56
2018-12-26T02:20:28.889Z,1026.54
2018-12-26T02:21:28.863Z,1026.56
2018-12-26T02:22:28.845Z,1026.53
2018-12-26T02:23:28.812Z,1026.55
2018-12-26T02:24:28.786Z,1026.55
2018-12-26T02:25:28.759Z,1026.52
2018-12-26T02:26:36.249Z,1026.56
2018-12-26T02:27:28.708Z,1026.55
2018-12-26T02:28:28.681Z,1026.56
2018-12-26T02:29:28.657Z,1026.58
2018-12-26T02:30:28.629Z,1026.60
2018-12-26T02:31:28.707Z,1026.60
2018-12-26T02:32:30.397Z,1026.63
2018-12-26T02:33:28.551Z,1026.65
2018-12-26T02:34:28.528Z,1026.56
2018-12-26T02:35:28.502Z,1026.58
2018-12-26T02:36:28.475Z,1026.55
2018-12-26T02:37:28.447Z,1026.56
2018-12-26T02:38:28.424Z,1026.54
2018-12-26T02:39:28.394Z,1026.54
2018-12-26T02:40:28.371Z,1026.54
2018-12-26T02:41:28.344Z,1026.59
2018-12-26T02:42:28.318Z,1026.57
2018-12-26T02:43:28.291Z,1026.59
2018-12-26T02:44:28.266Z,1026.57
2018-12-26T02:45:28.241Z,1026.53
2018-12-26T02:46:28.214Z,1026.51
2018-12-26T02:47:28.186Z,1026.52
2018-12-26T02:48:28.163Z,1026.52
2018-12-26T02:49:28.135Z,1026.51
2018-12-26T02:50:28.108Z,1026.44
2018-12-26T02:51:28.085Z,1026.52
2018-12-26T02:52:28.059Z,1026.47
2018-12-26T02:53:28.031Z,1026.51
2018-12-26T02:54:28.004Z,1026.48
2018-12-26T02:55:27.979Z,1026.44
2018-12-26T02:56:27.958Z,1026.47
2018-12-26T02:57:27.928Z,1026.41
2018-12-26T02:58:27.902Z,1026.39
2018-12-26T02:59:27.875Z,1026.38
2018-12-26T03:00:27.854Z,1026.38
2018-12-26T03:01:27.824Z,1026.37
2018-12-26T03:02:27.797Z,1026.33
2018-12-26T03:03:27.771Z,1026.37
2018-12-26T03:04:27.745Z,1026.33
2018-12-26T03:05:27.717Z,1026.31
2018-12-26T03:06:27.694Z,1026.30
2018-12-26T03:07:27.678Z,1026.26
2018-12-26T03:08:27.659Z,1026.27
2018-12-26T03:09:27.639Z,1026.30
2018-12-26T03:10:27.605Z,1026.31
2018-12-26T03:11:27.567Z,1026.34
2018-12-26T03:12:27.561Z,1026.26
2018-12-26T03:13:27.512Z,1026.27
2018-12-26T03:14:27.487Z,1026.27
2018-12-26T03:15:27.469Z,1026.23
2018-12-26T03:16:27.432Z,1026.28
2018-12-26T03:17:27.412Z,1026.27
2018-12-26T03:18:27.380Z,1026.25
2018-12-26T03:19:27.356Z,1026.22
2018-12-26T03:20:27.329Z,1026.26
2018-12-26T03:21:27.302Z,1026.22
2018-12-26T03:22:27.278Z,1026.18
2018-12-26T03:23:27.255Z,1026.15
2018-12-26T03:24:27.223Z,1026.15
2018-12-26T03:25:27.204Z,1026.15
2018-12-26T03:26:27.181Z,1026.14
2018-12-26T03:27:27.146Z,1026.10
2018-12-26T03:28:27.121Z,1026.14
2018-12-26T03:29:27.094Z,1026.05
2018-12-26T03:30:27.090Z,1026.04
2018-12-26T03:31:27.054Z,1026.08
2018-12-26T03:32:27.016Z,1026.10
2018-12-26T03:33:27.003Z,1026.10
2018-12-26T03:34:26.966Z,1026.11
2018-12-26T03:35:26.940Z,1026.10
2018-12-26T03:36:26.912Z,1026.09
2018-12-26T03:37:26.886Z,1026.02
2018-12-26T03:38:26.870Z,1026.05
2018-12-26T03:39:26.833Z,1026.00
2018-12-26T03:40:26.807Z,1026.00
2018-12-26T03:41:26.783Z,1025.96
2018-12-26T03:42:26.753Z,1025.92
2018-12-26T03:43:26.726Z,1025.84
2018-12-26T03:44:26.718Z,1025.85
2018-12-26T03:45:26.675Z,1025.78
2018-12-26T03:46:26.658Z,1025.78
2018-12-26T03:47:26.622Z,1025.77
2018-12-26T03:48:26.597Z,1025.73
2018-12-26T03:49:26.570Z,1025.76
2018-12-26T03:50:26.544Z,1025.74
2018-12-26T03:51:26.517Z,1025.76
2018-12-26T03:52:26.495Z,1025.73
2018-12-26T03:53:26.472Z,1025.77
2018-12-26T03:54:26.440Z,1025.76
2018-12-26T03:55:26.419Z,1025.77
2018-12-26T03:56:26.388Z,1025.76
2018-12-26T03:57:26.364Z,1025.74
2018-12-26T03:58:26.334Z,1025.75
2018-12-26T03:59:26.320Z,1025.73
2018-12-26T04:00:26.287Z,1025.72
2018-12-26T04:01:26.258Z,1025.72
2018-12-26T04:02:26.235Z,1025.75
2018-12-26T04:03:26.207Z,1025.77
2018-12-26T04:04:26.181Z,1025.77
2018-12-26T04:05:26.157Z,1025.77
2018-12-26T04:06:26.139Z,1025.74
2018-12-26T04:07:26.103Z,1025.74
2018-12-26T04:08:26.074Z,1025.71
2018-12-26T04:09:26.050Z,1025.74
2018-12-26T04:10:26.024Z,1025.70
2018-12-26T04:11:26.005Z,1025.70
2018-12-26T04:12:25.974Z,1025.73
2018-12-26T04:13:25.949Z,1025.71
2018-12-26T04:14:25.919Z,1025.76
2018-12-26T04:15:25.892Z,1025.71
2018-12-26T04:16:25.881Z,1025.71
2018-12-26T04:17:25.849Z,1025.65
2018-12-26T04:18:25.823Z,1025.68
2018-12-26T04:19:25.797Z,1025.66
2018-12-26T04:20:25.759Z,1025.66
2018-12-26T04:21:25.738Z,1025.69
2018-12-26T04:22:25.714Z,1025.70
2018-12-26T04:23:25.684Z,1025.68
2018-12-26T04:24:25.703Z,1025.70
2018-12-26T04:25:25.634Z,1025.70
2018-12-26T04:26:25.607Z,1025.70
2018-12-26T04:27:25.580Z,1025.67
2018-12-26T04:28:25.550Z,1025.65
2018-12-26T04:29:25.531Z,1025.61
2018-12-26T04:30:25.500Z,1025.61
2018-12-26T04:31:25.477Z,1025.61
2018-12-26T04:32:25.445Z,1025.62
2018-12-26T04:33:25.425Z,1025.58
2018-12-26T04:34:25.393Z,1025.58
2018-12-26T04:35:25.367Z,1025.58
2018-12-26T04:36:25.340Z,1025.60
2018-12-26T04:37:25.316Z,1025.61
2018-12-26T04:38:25.290Z,1025.59
2018-12-26T04:39:25.269Z,1025.61
2018-12-26T04:40:25.236Z,1025.63
2018-12-26T04:41:25.211Z,1025.65
2018-12-26T04:42:25.185Z,1025.64
2018-12-26T04:43:25.158Z,1025.62
2018-12-26T04:44:25.143Z,1025.59
2018-12-26T04:45:25.105Z,1025.62
2018-12-26T04:46:25.080Z,1025.61
2018-12-26T04:47:25.053Z,1025.66
2018-12-26T04:48:25.028Z,1025.62
2018-12-26T04:49:25.007Z,1025.61
2018-12-26T04:50:24.975Z,1025.56
2018-12-26T04:51:24.950Z,1025.63
2018-12-26T04:52:24.937Z,1025.60
2018-12-26T04:53:24.898Z,1025.61
2018-12-26T04:54:24.872Z,1025.64
2018-12-26T04:55:24.849Z,1025.61
2018-12-26T04:56:24.823Z,1025.61
2018-12-26T04:57:25.237Z,1025.64
2018-12-26T04:58:24.765Z,1025.68
2018-12-26T04:59:24.739Z,1025.64
2018-12-26T05:00:24.711Z,1025.70
2018-12-26T05:01:24.686Z,1025.68
2018-12-26T05:02:24.660Z,1025.74
2018-12-26T05:03:24.639Z,1025.73
2018-12-26T05:04:24.608Z,1025.78
2018-12-26T05:05:24.581Z,1025.79
2018-12-26T05:06:24.557Z,1025.84
2018-12-26T05:07:24.532Z,1025.85
2018-12-26T05:08:24.503Z,1025.89
2018-12-26T05:09:24.477Z,1025.87
2018-12-26T05:10:24.449Z,1025.89
2018-12-26T05:11:24.425Z,1025.91
2018-12-26T05:12:24.407Z,1025.89
2018-12-26T05:13:24.374Z,1025.92
2018-12-26T05:14:24.346Z,1025.90
2018-12-26T05:15:24.319Z,1025.89
2018-12-26T05:16:24.297Z,1025.90
2018-12-26T05:17:24.266Z,1025.90
2018-12-26T05:18:24.242Z,1025.90
2018-12-26T05:19:24.217Z,1025.91
2018-12-26T05:20:24.193Z,1025.91
2018-12-26T05:21:24.163Z,1025.93
2018-12-26T05:22:24.137Z,1025.94
2018-12-26T05:23:24.114Z,1025.92
2018-12-26T05:24:24.093Z,1025.91
2018-12-26T05:25:24.060Z,1025.92
2018-12-26T05:26:24.041Z,1025.95
2018-12-26T05:27:24.007Z,1025.90
2018-12-26T05:28:23.992Z,1025.94
2018-12-26T05:29:23.955Z,1025.94
2018-12-26T05:30:23.930Z,1025.97
2018-12-26T05:31:23.904Z,1025.94
2018-12-26T05:32:23.877Z,1025.97
2018-12-26T05:33:23.851Z,1025.97
2018-12-26T05:34:23.825Z,1025.97
2018-12-26T05:35:23.910Z,1025.97
2018-12-26T05:36:23.772Z,1025.92
2018-12-26T05:37:23.745Z,1025.89
2018-12-26T05:38:23.732Z,1025.92
2018-12-26T05:39:23.694Z,1025.91
2018-12-26T05:40:23.671Z,1025.93
2018-12-26T05:41:23.643Z,1025.91
2018-12-26T05:42:23.622Z,1025.93
2018-12-26T05:43:23.590Z,1025.96
2018-12-26T05:44:23.565Z,1025.99
2018-12-26T05:45:23.538Z,1026.00
2018-12-26T05:46:23.515Z,1026.02
2018-12-26T05:47:23.486Z,1026.03
2018-12-26T05:48:23.460Z,1026.00
2018-12-26T05:49:23.437Z,1026.01
2018-12-26T05:50:23.407Z,1026.03
2018-12-26T05:51:23.383Z,1026.04
2018-12-26T05:52:23.355Z,1026.05
2018-12-26T05:53:23.330Z,1026.05
2018-12-26T05:54:23.307Z,1026.03
2018-12-26T05:55:23.278Z,1026.06
2018-12-26T05:56:23.252Z,1026.01
2018-12-26T05:57:23.227Z,1026.04
2018-12-26T05:58:23.200Z,1026.04
2018-12-26T05:59:23.174Z,1026.07
2018-12-26T06:00:23.148Z,1026.07
2018-12-26T06:01:23.122Z,1026.04
2018-12-26T06:02:23.093Z,1026.04
2018-12-26T06:03:23.069Z,1026.02
2018-12-26T06:04:23.048Z,1026.02
2018-12-26T06:05:23.018Z,1026.04
2018-12-26T06:06:22.991Z,1026.01
2018-12-26T06:07:22.966Z,1026.00
2018-12-26T06:08:22.941Z,1025.98
2018-12-26T06:09:22.917Z,1026.01
2018-12-26T06:10:22.887Z,1026.03
2018-12-26T06:11:22.862Z,1026.01
2018-12-26T06:12:22.837Z,1026.04
2018-12-26T06:13:22.812Z,1026.00
2018-12-26T06:14:22.787Z,1026.04
2018-12-26T06:15:22.760Z,1026.04
2018-12-26T06:16:22.743Z,1026.02
2018-12-26T06:17:22.706Z,1026.05
2018-12-26T06:18:22.681Z,1026.05
2018-12-26T06:19:22.655Z,1026.03
2018-12-26T06:20:22.629Z,1026.05
2018-12-26T06:21:22.602Z,1026.07
2018-12-26T06:22:22.575Z,1026.07
2018-12-26T06:23:22.552Z,1026.05
2018-12-26T06:24:22.532Z,1026.05
2018-12-26T06:25:22.498Z,1026.04
2018-12-26T06:26:22.473Z,1026.02
2018-12-26T06:27:22.447Z,1026.06
2018-12-26T06:28:22.427Z,1026.06
2018-12-26T06:29:22.400Z,1026.10
2018-12-26T06:30:22.366Z,1026.11
2018-12-26T06:31:22.345Z,1026.09
2018-12-26T06:32:24.117Z,1026.13
2018-12-26T06:33:22.291Z,1026.13
2018-12-26T06:34:22.263Z,1026.19
2018-12-26T06:35:22.238Z,1026.19
2018-12-26T06:36:22.212Z,1026.17
2018-12-26T06:37:22.185Z,1026.17
2018-12-26T06:38:22.159Z,1026.22
2018-12-26T06:39:22.133Z,1026.16
2018-12-26T06:40:22.114Z,1026.17
2018-12-26T06:41:22.088Z,1026.16
2018-12-26T06:42:22.056Z,1026.15
2018-12-26T06:43:22.031Z,1026.10
2018-12-26T06:44:22.004Z,1026.05
2018-12-26T06:45:21.977Z,1026.05
2018-12-26T06:46:21.950Z,1026.05
2018-12-26T06:47:21.924Z,1026.04
2018-12-26T06:48:21.899Z,1026.09
2018-12-26T06:49:21.874Z,1026.08
2018-12-26T06:50:21.846Z,1026.08
2018-12-26T06:51:21.822Z,1026.06
2018-12-26T06:52:21.799Z,1026.08
2018-12-26T06:53:21.776Z,1026.03
2018-12-26T06:54:21.744Z,1026.07
2018-12-26T06:55:21.719Z,1026.07
2018-12-26T06:56:21.690Z,1026.10
2018-12-26T06:57:21.665Z,1026.10
2018-12-26T06:58:21.639Z,1026.08
2018-12-26T06:59:21.612Z,1026.07
2018-12-26T07:00:21.590Z,1026.11
2018-12-26T07:01:21.561Z,1026.11
2018-12-26T07:02:21.534Z,1026.11
2018-12-26T07:03:21.513Z,1026.10
2018-12-26T07:04:21.482Z,1026.09
2018-12-26T07:05:21.456Z,1026.11
2018-12-26T07:06:21.429Z,1026.11
2018-12-26T07:07:21.405Z,1026.14
2018-12-26T07:08:21.377Z,1026.14
2018-12-26T07:09:21.356Z,1026.14
2018-12-26T07:10:21.328Z,1026.09
2018-12-26T07:11:21.300Z,1026.09
2018-12-26T07:12:21.282Z,1026.10
2018-12-26T07:13:21.263Z,1026.08
2018-12-26T07:14:21.223Z,1026.07
2018-12-26T07:15:21.195Z,1026.07
2018-12-26T07:16:21.169Z,1026.08
2018-12-26T07:17:21.143Z,1026.10
2018-12-26T07:18:21.117Z,1026.10
2018-12-26T07:19:21.098Z,1026.12
2018-12-26T07:20:21.069Z,1026.11
2018-12-26T07:21:21.046Z,1026.12
2018-12-26T07:22:21.011Z,1026.12
2018-12-26T07:23:20.987Z,1026.07
2018-12-26T07:24:20.962Z,1026.11
2018-12-26T07:25:20.934Z,1026.09
2018-12-26T07:26:20.909Z,1026.12
2018-12-26T07:27:20.883Z,1026.07
2018-12-26T07:28:20.857Z,1026.14
2018-12-26T07:29:20.838Z,1026.08
2018-12-26T07:30:20.805Z,1026.10
2018-12-26T07:31:20.778Z,1026.12
2018-12-26T07:32:20.760Z,1026.06
2018-12-26T07:33:20.749Z,1026.07
2018-12-26T07:34:20.701Z,1026.09
2018-12-26T07:35:20.675Z,1026.05
2018-12-26T07:36:20.647Z,1026.00
2018-12-26T07:37:20.623Z,1026.03
2018-12-26T07:38:20.601Z,1026.04
2018-12-26T07:39:20.570Z,1026.06
2018-12-26T07:40:20.551Z,1026.02
2018-12-26T07:41:20.517Z,1026.04
2018-12-26T07:42:20.513Z,1026.05
2018-12-26T07:43:20.465Z,1026.04
2018-12-26T07:44:20.442Z,1026.04
2018-12-26T07:45:20.418Z,1026.04
2018-12-26T07:46:20.394Z,1026.01
2018-12-26T07:47:20.362Z,1025.98
2018-12-26T07:48:20.343Z,1025.96
2018-12-26T07:49:20.312Z,1025.96
2018-12-26T07:50:20.283Z,1025.93
2018-12-26T07:51:20.258Z,1025.91
2018-12-26T07:52:20.233Z,1025.92
2018-12-26T07:53:20.209Z,1025.91
2018-12-26T07:54:20.763Z,1025.97
2018-12-26T07:55:20.155Z,1025.93
2018-12-26T07:56:20.139Z,1025.97
2018-12-26T07:57:20.108Z,1025.95
2018-12-26T07:58:20.073Z,1025.96
2018-12-26T07:59:20.047Z,1026.00
2018-12-26T08:00:20.031Z,1026.00
2018-12-26T08:01:20.001Z,1026.02
2018-12-26T08:02:19.972Z,1026.00
2018-12-26T08:03:19.944Z,1026.01
2018-12-26T08:04:19.920Z,1025.98
2018-12-26T08:05:19.892Z,1026.00
2018-12-26T08:06:19.864Z,1025.95
2018-12-26T08:07:19.838Z,1025.95
2018-12-26T08:08:19.820Z,1025.95
2018-12-26T08:09:19.784Z,1025.97
2018-12-26T08:10:19.768Z,1025.96
2018-12-26T08:11:19.744Z,1025.96
2018-12-26T08:12:19.711Z,1025.95
2018-12-26T08:13:19.682Z,1025.95
2018-12-26T08:14:19.652Z,1025.98
2018-12-26T08:15:19.626Z,1025.97
2018-12-26T08:16:19.609Z,1025.96
2018-12-26T08:17:19.582Z,1025.97
2018-12-26T08:18:19.552Z,1025.99
2018-12-26T08:19:19.523Z,1025.99
2018-12-26T08:20:19.497Z,1026.00
2018-12-26T08:21:19.471Z,1025.92
2018-12-26T08:22:19.443Z,1025.94
2018-12-26T08:23:19.425Z,1025.97
2018-12-26T08:24:19.394Z,1025.98
2018-12-26T08:25:19.364Z,1025.98
2018-12-26T08:26:19.338Z,1025.98
2018-12-26T08:27:19.310Z,1025.95
2018-12-26T08:28:26.453Z,1025.98
2018-12-26T08:29:19.260Z,1025.98
2018-12-26T08:30:19.240Z,1025.99
2018-12-26T08:31:19.209Z,1025.99
2018-12-26T08:32:19.181Z,1025.99
2018-12-26T08:33:19.154Z,1025.96
2018-12-26T08:34:19.139Z,1025.95
2018-12-26T08:35:19.103Z,1025.95
2018-12-26T08:36:19.080Z,1025.97
2018-12-26T08:37:19.053Z,1025.99
2018-12-26T08:38:19.028Z,1025.98
2018-12-26T08:39:18.999Z,1025.97
2018-12-26T08:40:18.977Z,1026.02
2018-12-26T08:41:18.949Z,1025.95
2018-12-26T08:42:18.921Z,1025.98
2018-12-26T08:43:18.894Z,1025.94
2018-12-26T08:44:18.878Z,1025.98
2018-12-26T08:45:18.853Z,1025.99
2018-12-26T08:46:18.914Z,1025.96
2018-12-26T08:47:18.790Z,1025.93
2018-12-26T08:48:18.764Z,1025.98
2018-12-26T08:49:18.737Z,1025.99
2018-12-26T08:50:18.712Z,1025.97
2018-12-26T08:51:18.698Z,1026.00
2018-12-26T08:52:18.660Z,1026.01
2018-12-26T08:53:18.636Z,1026.06
2018-12-26T08:54:18.606Z,1026.03
2018-12-26T08:55:18.582Z,1026.04
2018-12-26T08:56:18.568Z,1026.03
2018-12-26T08:57:18.528Z,1026.02
2018-12-26T08:58:18.502Z,1026.04
2018-12-26T08:59:18.476Z,1026.06
2018-12-26T09:00:18.450Z,1026.04
2018-12-26T09:01:18.423Z,1026.05
2018-12-26T09:02:18.402Z,1026.07
2018-12-26T09:03:18.371Z,1026.11
2018-12-26T09:04:18.369Z,1026.08
2018-12-26T09:05:18.317Z,1026.11
2018-12-26T09:06:18.295Z,1026.11
2018-12-26T09:07:18.266Z,1026.08
2018-12-26T09:08:18.246Z,1026.07
2018-12-26T09:09:18.214Z,1026.07
2018-12-26T09:10:18.193Z,1026.03
2018-12-26T09:11:18.163Z,1026.06
2018-12-26T09:12:18.141Z,1026.02
2018-12-26T09:13:18.115Z,1026.10
2018-12-26T09:14:18.084Z,1026.10
2018-12-26T09:15:18.065Z,1026.11
2018-12-26T09:16:18.032Z,1026.13
2018-12-26T09:17:18.007Z,1026.12
2018-12-26T09:18:17.980Z,1026.17
2018-12-26T09:19:17.954Z,1026.15
2018-12-26T09:20:17.929Z,1026.17
2018-12-26T09:21:17.909Z,1026.12
2018-12-26T09:22:17.877Z,1026.15
2018-12-26T09:23:17.855Z,1026.19
2018-12-26T09:24:17.829Z,1026.16
2018-12-26T09:25:17.807Z,1026.22
2018-12-26T09:26:17.777Z,1026.21
2018-12-26T09:27:17.748Z,1026.21
2018-12-26T09:28:17.723Z,1026.19
2018-12-26T09:29:17.701Z,1026.21
2018-12-26T09:30:17.670Z,1026.22
2018-12-26T09:31:17.646Z,1026.23
2018-12-26T09:32:17.626Z,1026.19
2018-12-26T09:33:17.593Z,1026.21
2018-12-26T09:34:17.564Z,1026.19
2018-12-26T09:35:17.538Z,1026.16
2018-12-26T09:36:17.513Z,1026.20
2018-12-26T09:37:17.487Z,1026.17
2018-12-26T09:38:17.460Z,1026.17
2018-12-26T09:39:17.441Z,1026.16
2018-12-26T09:40:17.408Z,1026.17
2018-12-26T09:41:17.387Z,1026.18
2018-12-26T09:42:17.360Z,1026.19
2018-12-26T09:43:17.331Z,1026.21
2018-12-26T09:44:17.303Z,1026.19
2018-12-26T09:45:17.279Z,1026.17
2018-12-26T09:46:17.252Z,1026.14
2018-12-26T09:47:17.226Z,1026.19
2018-12-26T09:48:17.202Z,1026.15
2018-12-26T09:49:17.172Z,1026.13
2018-12-26T09:50:17.147Z,1026.12
2018-12-26T09:51:17.129Z,1026.13
2018-12-26T09:52:17.109Z,1026.09
2018-12-26T09:53:17.083Z,1026.10
2018-12-26T09:54:17.052Z,1026.06
2018-12-26T09:55:17.018Z,1026.06
2018-12-26T09:56:16.995Z,1026.07
2018-12-26T09:57:16.965Z,1026.06
2018-12-26T09:58:16.942Z,1026.05
2018-12-26T09:59:16.913Z,1026.06
2018-12-26T10:00:16.886Z,1026.09
2018-12-26T10:01:16.861Z,1026.09
2018-12-26T10:02:16.841Z,1026.07
2018-12-26T10:03:16.812Z,1026.01
2018-12-26T10:04:16.792Z,1026.08
2018-12-26T10:05:16.761Z,1026.08
2018-12-26T10:06:16.733Z,1026.07
2018-12-26T10:07:16.710Z,1026.11
2018-12-26T10:08:16.700Z,1026.07
2018-12-26T10:09:16.662Z,1026.09
2018-12-26T10:10:16.626Z,1026.10
2018-12-26T10:11:16.602Z,1026.10
2018-12-26T10:12:16.579Z,1026.07
2018-12-26T10:13:16.559Z,1026.10
2018-12-26T10:14:16.525Z,1026.06
2018-12-26T10:15:16.498Z,1026.07
2018-12-26T10:16:16.477Z,1026.07
2018-12-26T10:17:16.446Z,1025.99
2018-12-26T10:18:16.418Z,1026.01
2018-12-26T10:19:16.396Z,1026.03
2018-12-26T10:20:16.370Z,1026.03
2018-12-26T10:21:16.348Z,1026.01
2018-12-26T10:22:16.316Z,1025.99
2018-12-26T10:23:16.295Z,1026.02
2018-12-26T10:24:16.264Z,1026.04
2018-12-26T10:25:16.243Z,1026.04
2018-12-26T10:26:16.211Z,1026.02
2018-12-26T10:27:16.185Z,1026.06
2018-12-26T10:28:16.168Z,1026.01
2018-12-26T10:29:16.138Z,1026.05
2018-12-26T10:30:16.106Z,1026.01
2018-12-26T10:31:16.083Z,1026.01
2018-12-26T10:32:16.057Z,1026.01
2018-12-26T10:33:16.029Z,1026.00
2018-12-26T10:34:16.002Z,1026.02
2018-12-26T10:35:15.978Z,1026.00
2018-12-26T10:36:15.955Z,1026.03
2018-12-26T10:37:15.932Z,1026.01
2018-12-26T10:38:15.909Z,1026.03
2018-12-26T10:39:15.889Z,1026.02
2018-12-26T10:40:15.847Z,1026.01
2018-12-26T10:41:15.834Z,1025.99
2018-12-26T10:42:15.812Z,1025.98
2018-12-26T10:43:15.770Z,1025.97
2018-12-26T10:44:15.747Z,1025.99
2018-12-26T10:45:15.718Z,1025.95
2018-12-26T10:46:15.704Z,1025.96
2018-12-26T10:47:15.665Z,1025.97
2018-12-26T10:48:15.648Z,1025.97
2018-12-26T10:49:15.616Z,1025.98
2018-12-26T10:50:15.595Z,1025.98
2018-12-26T10:51:15.568Z,1025.98
2018-12-26T10:52:15.544Z,1026.00
2018-12-26T10:53:15.524Z,1026.00
2018-12-26T10:54:15.487Z,1025.97
2018-12-26T10:55:15.458Z,1025.96
2018-12-26T10:56:15.434Z,1025.95
2018-12-26T10:57:15.414Z,1025.95
2018-12-26T10:58:15.383Z,1025.97
2018-12-26T10:59:15.358Z,1025.97
2018-12-26T11:00:15.338Z,1025.94
2018-12-26T11:01:15.312Z,1025.92
2018-12-26T11:02:15.284Z,1025.92
2018-12-26T11:03:15.255Z,1025.91
2018-12-26T11:04:15.226Z,1025.92
2018-12-26T11:05:15.209Z,1025.90
2018-12-26T11:06:15.174Z,1025.95
2018-12-26T11:07:15.147Z,1025.95
2018-12-26T11:08:15.135Z,1025.96
2018-12-26T11:09:15.100Z,1025.95
2018-12-26T11:10:15.080Z,1025.93
2018-12-26T11:11:15.043Z,1025.90
2018-12-26T11:12:15.032Z,1025.93
2018-12-26T11:13:14.994Z,1025.92
2018-12-26T11:14:14.970Z,1025.90
2018-12-26T11:15:14.944Z,1025.86
2018-12-26T11:16:14.924Z,1025.93
2018-12-26T11:17:14.889Z,1025.92
2018-12-26T11:18:14.873Z,1025.88
2018-12-26T11:19:14.850Z,1025.85
2018-12-26T11:20:14.813Z,1025.86
2018-12-26T11:21:14.791Z,1025.87
2018-12-26T11:22:14.763Z,1025.81
2018-12-26T11:23:14.732Z,1025.80
2018-12-26T11:24:14.708Z,1025.76
2018-12-26T11:25:14.689Z,1025.76
2018-12-26T11:26:14.669Z,1025.72
2018-12-26T11:27:14.629Z,1025.72
2018-12-26T11:28:14.605Z,1025.68
2018-12-26T11:29:18.580Z,1025.67
2018-12-26T11:30:14.563Z,1025.71
2018-12-26T11:31:14.525Z,1025.67
2018-12-26T11:32:14.503Z,1025.68
2018-12-26T11:33:14.475Z,1025.69
2018-12-26T11:34:14.447Z,1025.69
2018-12-26T11:35:14.421Z,1025.67
2018-12-26T11:36:14.400Z,1025.73
2018-12-26T11:37:14.378Z,1025.67
2018-12-26T11:38:14.346Z,1025.68
2018-12-26T11:39:14.329Z,1025.64
2018-12-26T11:40:14.295Z,1025.68
2018-12-26T11:41:14.269Z,1025.64
2018-12-26T11:42:14.256Z,1025.63
2018-12-26T11:43:14.221Z,1025.65
2018-12-26T11:44:14.192Z,1025.66
2018-12-26T11:45:14.177Z,1025.64
2018-12-26T11:46:14.141Z,1025.62
2018-12-26T11:47:14.121Z,1025.62
2018-12-26T11:48:14.092Z,1025.62
2018-12-26T11:49:14.068Z,1025.62
2018-12-26T11:50:14.048Z,1025.59
2018-12-26T11:51:14.009Z,1025.58
2018-12-26T11:52:13.984Z,1025.60
2018-12-26T11:53:13.958Z,1025.58
2018-12-26T11:54:13.946Z,1025.52
2018-12-26T11:55:13.909Z,1025.54
2018-12-26T11:56:13.892Z,1025.54
2018-12-26T11:57:13.859Z,1025.56
2018-12-26T11:58:13.840Z,1025.51
2018-12-26T11:59:13.818Z,1025.53
2018-12-26T12:00:13.781Z,1025.55
2018-12-26T12:01:13.753Z,1025.54
2018-12-26T12:02:20.569Z,1025.53
2018-12-26T12:03:13.707Z,1025.53
2018-12-26T12:04:13.683Z,1025.50
2018-12-26T12:05:13.648Z,1025.51